Observations for Trim Market St
| Time | AQI | Temp °C | Hum % | Pres Pa | CO μg/m³ | H₂S μg/m³ | NO μg/m³ | NO₂ μg/m³ | O₃ μg/m³ | SO₂ μg/m³ | PM1 μg/m³ | PM2.5 μg/m³ | PM10 μg/m³ |
|---|---|---|---|---|---|---|---|---|---|---|---|---|---|
| Tuesday 14 July 2026 | |||||||||||||
| 07:34 | 1 | 22.2 | 62 | 57,510 | 0.15 | 0 | 0 | 0 | 0 | 0 | 2.85 | 4.9 | 8.2 |
| 07:33 | 1 | 22.1 | 63 | 57,473 | 0.15 | 0 | 0.72 | 0 | 0 | 0 | 2.85 | 4.88 | 6.86 |
| 07:32 | 1 | 22 | 63 | 57,431 | 0.17 | 0 | 0.1 | 0 | 0 | 0 | 3.56 | 5.86 | 8.2 |
| 07:31 | 1 | 21.9 | 63 | 57,397 | 0.17 | 0 | 0 | 0 | 3.7 | 0 | 2.14 | 3.37 | 4.86 |
| 07:30 | 1 | 21.9 | 64 | 57,375 | 0.16 | 0 | 0 | 0 | 0 | 0 | 1.43 | 3.85 | 7.53 |
| 07:29 | 1 | 21.8 | 64 | 57,346 | 0.16 | 0 | 0.28 | 0 | 2.07 | 0 | 2.14 | 3.84 | 6.2 |
| 07:28 | 1 | 21.7 | 64 | 57,308 | 0.17 | 0 | 0.97 | 0 | 0.69 | 0 | 2.85 | 4.81 | 8.85 |
| 07:27 | 1 | 21.6 | 64 | 57,267 | 0.16 | 0 | 0 | 0 | 3.19 | 0 | 2.14 | 3.81 | 6.21 |
| 07:26 | 1 | 21.5 | 65 | 57,224 | 0.17 | 0 | 0 | 0 | 0 | 0 | 2.85 | 4.78 | 6.87 |
| 07:25 | 1 | 21.4 | 65 | 57,185 | 0.18 | 0 | 0 | 0 | 0 | 0 | 2.14 | 3.79 | 6.87 |
| 07:24 | 1 | 21.3 | 65 | 57,142 | 0.2 | 0 | 0 | 0.1 | 1.6 | 0 | 3.56 | 4.76 | 6.87 |
| 07:23 | 1 | 21.3 | 65 | 57,101 | 0.18 | 0 | 0.18 | 0 | 2.08 | 0 | 2.14 | 3.76 | 5.57 |
| 07:22 | 1 | 21.2 | 66 | 57,053 | 0.19 | 0 | 0 | 0 | 0 | 0 | 2.85 | 4.24 | 7.53 |
| 07:21 | 1 | 21.1 | 66 | 56,999 | 0.2 | 0 | 0.77 | 0.38 | 6.51 | 0 | 2.85 | 4.23 | 6.23 |
| 07:13 | 1 | 20.6 | 68 | 56,526 | 0.28 | 0 | 0 | 0.05 | 0 | 0 | 2.85 | 4.6 | 6.89 |
| 07:12 | 1 | 20.5 | 69 | 56,384 | 0.28 | 0 | 0 | 0.73 | 0.6 | 0 | 2.14 | 4.1 | 6.89 |
| 07:09 | 1 | 20.3 | 70 | 55,836 | 0.29 | 0 | 1.62 | 1.88 | 5.36 | 0 | 3.56 | 4.54 | 8.16 |
| 07:06 | 1 | 20 | 70 | 55,084 | 0.31 | 0 | 0 | 5.16 | 11.35 | 0 | 2.85 | 4.49 | 6.91 |
| 07:04 | 1 | 19.7 | 71 | 54,779 | 0.3 | 0 | 0 | 3.89 | 10.36 | 0 | 1.43 | 3.5 | 5.67 |
| 07:03 | 1 | 19.6 | 71 | 54,493 | 0.29 | 0 | 0.48 | 3.38 | 8.5 | 0 | 2.85 | 4.45 | 6.91 |